createdAt,value
2023-04-03T00:00:36.157Z,0.29
2023-04-03T00:01:35.843Z,0.52
2023-04-03T00:02:35.873Z,0.27
2023-04-03T00:03:35.866Z,0.31
2023-04-03T00:04:35.892Z,0.44
2023-04-03T00:05:35.800Z,0.26
2023-04-03T00:06:35.800Z,0.26
2023-04-03T00:07:35.791Z,0.18
2023-04-03T00:08:35.780Z,0.34
2023-04-03T00:09:35.800Z,0.28
2023-04-03T00:10:36.179Z,0.42
2023-04-03T00:11:35.796Z,0.36
2023-04-03T00:12:35.852Z,0.36
2023-04-03T00:13:35.883Z,0.24
2023-04-03T00:14:35.935Z,0.54
2023-04-03T00:15:39.001Z,0.35
2023-04-03T00:16:36.017Z,0.37
2023-04-03T00:17:36.024Z,0.29
2023-04-03T00:18:35.980Z,0.30
2023-04-03T00:19:35.975Z,0.27
2023-04-03T00:20:36.253Z,0.40
2023-04-03T00:21:35.968Z,0.26
2023-04-03T00:22:35.961Z,0.29
2023-04-03T00:23:35.946Z,0.27
2023-04-03T00:24:35.955Z,0.29
2023-04-03T00:25:35.938Z,0.43
2023-04-03T00:26:35.949Z,0.34
2023-04-03T00:27:35.964Z,0.27
2023-04-03T00:28:35.962Z,0.39
2023-04-03T00:29:35.940Z,0.51
2023-04-03T00:30:36.145Z,0.26
2023-04-03T00:31:35.917Z,0.36
2023-04-03T00:32:35.990Z,0.32
2023-04-03T00:33:35.910Z,0.40
2023-04-03T00:34:35.904Z,0.45
2023-04-03T00:35:36.043Z,0.29
2023-04-03T00:36:36.295Z,0.30
2023-04-03T00:37:35.957Z,0.35
2023-04-03T00:38:35.991Z,0.31
2023-04-03T00:39:36.028Z,0.37
2023-04-03T00:40:36.379Z,0.48
2023-04-03T00:41:36.145Z,0.33
2023-04-03T00:42:39.002Z,0.38
2023-04-03T00:43:36.171Z,0.36
2023-04-03T00:44:36.192Z,0.37
2023-04-03T00:45:36.183Z,0.35
2023-04-03T00:46:36.191Z,0.39
2023-04-03T00:47:36.180Z,0.33
2023-04-03T00:48:36.144Z,0.58
2023-04-03T00:49:36.132Z,0.49
2023-04-03T00:50:36.506Z,0.24
2023-04-03T00:51:36.208Z,0.51
2023-04-03T00:52:36.103Z,0.55
2023-04-03T00:53:36.104Z,0.25
2023-04-03T00:54:36.112Z,0.41
2023-04-03T00:55:36.109Z,0.32
2023-04-03T00:56:36.140Z,0.29
2023-04-03T00:57:36.160Z,0.37
2023-04-03T00:58:36.150Z,0.44
2023-04-03T00:59:36.125Z,0.31
2023-04-03T01:00:36.438Z,0.19
2023-04-03T01:01:36.071Z,0.32
2023-04-03T01:02:36.009Z,0.24
2023-04-03T01:03:36.013Z,0.27
2023-04-03T01:04:36.119Z,0.45
2023-04-03T01:05:35.989Z,0.37
2023-04-03T01:06:36.043Z,0.50
2023-04-03T01:07:36.096Z,0.38
2023-04-03T01:08:36.266Z,0.29
2023-04-03T01:09:36.196Z,0.29
2023-04-03T01:10:36.622Z,0.26
2023-04-03T01:11:36.279Z,0.36
2023-04-03T01:12:36.306Z,0.37
2023-04-03T01:13:36.360Z,0.27
2023-04-03T01:14:36.405Z,0.46
2023-04-03T01:15:36.733Z,0.37
2023-04-03T01:16:36.802Z,0.35
2023-04-03T01:17:36.760Z,0.31
2023-04-03T01:18:36.725Z,0.27
2023-04-03T01:19:36.724Z,0.33
2023-04-03T01:20:37.269Z,0.35
2023-04-03T01:21:36.749Z,0.45
2023-04-03T01:22:36.790Z,0.30
2023-04-03T01:23:36.844Z,0.24
2023-04-03T01:24:36.882Z,0.38
2023-04-03T01:25:36.925Z,0.41
2023-04-03T01:26:37.513Z,0.31
2023-04-03T01:27:37.031Z,0.29
2023-04-03T01:28:37.092Z,0.35
2023-04-03T01:29:37.144Z,0.34
2023-04-03T01:30:37.347Z,0.34
2023-04-03T01:31:37.272Z,0.27
2023-04-03T01:32:37.356Z,0.34
2023-04-03T01:33:37.339Z,0.27
2023-04-03T01:34:37.387Z,0.31
2023-04-03T01:35:37.458Z,0.22
2023-04-03T01:36:37.467Z,0.26
2023-04-03T01:37:37.515Z,0.31
2023-04-03T01:38:37.557Z,0.36
2023-04-03T01:39:37.743Z,0.32
2023-04-03T01:40:37.908Z,0.29
2023-04-03T01:41:37.747Z,0.27
2023-04-03T01:42:37.754Z,0.36
2023-04-03T01:43:37.807Z,0.49
2023-04-03T01:44:37.857Z,0.25
2023-04-03T01:45:40.792Z,0.32
2023-04-03T01:46:37.896Z,0.29
2023-04-03T01:47:37.918Z,0.35
2023-04-03T01:48:37.901Z,0.31
2023-04-03T01:49:37.872Z,0.36
2023-04-03T01:50:38.268Z,0.31
2023-04-03T01:51:38.030Z,0.47
2023-04-03T01:52:37.846Z,0.32
2023-04-03T01:53:37.847Z,0.39
2023-04-03T01:54:37.844Z,0.48
2023-04-03T01:55:37.841Z,0.45
2023-04-03T01:56:37.832Z,0.36
2023-04-03T01:57:37.841Z,0.31
2023-04-03T01:58:37.817Z,0.32
2023-04-03T01:59:37.819Z,0.25
2023-04-03T02:00:38.165Z,0.37
2023-04-03T02:01:38.000Z,0.28
2023-04-03T02:02:38.051Z,0.35
2023-04-03T02:03:37.820Z,0.38
2023-04-03T02:04:37.816Z,0.39
2023-04-03T02:05:37.843Z,0.24
2023-04-03T02:06:37.890Z,0.44
2023-04-03T02:07:37.949Z,0.35
2023-04-03T02:08:37.997Z,1.11
2023-04-03T02:09:38.052Z,0.32
2023-04-03T02:10:38.453Z,0.30
2023-04-03T02:11:38.139Z,0.41
2023-04-03T02:12:38.188Z,0.31
2023-04-03T02:13:38.250Z,0.33
2023-04-03T02:14:38.300Z,0.25
2023-04-03T02:15:38.360Z,0.43
2023-04-03T02:16:38.836Z,0.19
2023-04-03T02:17:38.789Z,0.32
2023-04-03T02:18:38.755Z,0.35
2023-04-03T02:19:38.765Z,0.35
2023-04-03T02:20:39.174Z,0.24
2023-04-03T02:21:38.758Z,0.26
2023-04-03T02:22:38.766Z,0.56
2023-04-03T02:23:38.764Z,0.53
2023-04-03T02:24:38.758Z,0.43
2023-04-03T02:25:39.176Z,0.36
2023-04-03T02:26:38.873Z,0.38
2023-04-03T02:27:38.892Z,0.33
2023-04-03T02:28:38.931Z,0.18
2023-04-03T02:29:38.983Z,0.56
2023-04-03T02:30:39.384Z,0.39
2023-04-03T02:31:39.078Z,0.40
2023-04-03T02:32:39.150Z,0.26
2023-04-03T02:33:39.177Z,0.41
2023-04-03T02:34:39.216Z,0.38
2023-04-03T02:35:42.145Z,0.37
2023-04-03T02:36:46.056Z,0.31
2023-04-03T02:37:39.268Z,0.32
2023-04-03T02:38:39.279Z,0.34
2023-04-03T02:39:39.255Z,0.44
2023-04-03T02:40:40.077Z,0.60
2023-04-03T02:41:40.052Z,0.36
2023-04-03T02:42:40.036Z,0.23
2023-04-03T02:43:39.225Z,0.37
2023-04-03T02:44:39.200Z,0.39
2023-04-03T02:45:39.194Z,0.38
2023-04-03T02:46:39.200Z,0.45
2023-04-03T02:47:39.233Z,0.43
2023-04-03T02:48:39.186Z,0.32
2023-04-03T02:49:39.172Z,0.30
2023-04-03T02:50:39.786Z,0.56
2023-04-03T02:51:39.241Z,0.45
2023-04-03T02:52:46.042Z,0.38
2023-04-03T02:53:39.239Z,0.42
2023-04-03T02:54:39.237Z,0.36
2023-04-03T02:55:39.227Z,0.41
2023-04-03T02:56:39.238Z,0.25
2023-04-03T02:57:39.214Z,0.26
2023-04-03T02:58:39.188Z,0.44
2023-04-03T02:59:39.178Z,0.27
2023-04-03T03:00:39.981Z,0.37
2023-04-03T03:01:39.315Z,0.37
2023-04-03T03:02:39.233Z,0.48
2023-04-03T03:03:39.155Z,0.32
2023-04-03T03:04:39.198Z,0.27
2023-04-03T03:05:39.139Z,0.52
2023-04-03T03:06:39.143Z,0.28
2023-04-03T03:07:46.080Z,0.42
2023-04-03T03:08:39.789Z,0.52
2023-04-03T03:09:39.141Z,0.33
2023-04-03T03:10:39.340Z,0.34
2023-04-03T03:11:39.117Z,0.33
2023-04-03T03:12:39.111Z,0.56
2023-04-03T03:13:39.112Z,0.51
2023-04-03T03:14:39.104Z,0.45
2023-04-03T03:15:39.111Z,0.28
2023-04-03T03:16:39.079Z,0.56
2023-04-03T03:17:39.121Z,0.33
2023-04-03T03:18:40.066Z,0.34
2023-04-03T03:19:40.057Z,0.37
2023-04-03T03:20:39.171Z,0.60
2023-04-03T03:21:39.154Z,0.57
2023-04-03T03:22:39.204Z,0.31
2023-04-03T03:23:40.143Z,0.43
2023-04-03T03:24:40.119Z,0.50
2023-04-03T03:25:39.512Z,0.47
2023-04-03T03:26:39.405Z,0.34
2023-04-03T03:27:40.124Z,0.45
2023-04-03T03:28:39.507Z,0.38
2023-04-03T03:29:39.549Z,0.42
2023-04-03T03:30:39.599Z,0.50
2023-04-03T03:31:39.679Z,0.36
2023-04-03T03:32:39.732Z,0.24
2023-04-03T03:33:40.119Z,0.39
2023-04-03T03:34:40.121Z,0.33
2023-04-03T03:35:40.389Z,0.37
2023-04-03T03:36:40.120Z,0.38
2023-04-03T03:37:40.568Z,0.52
2023-04-03T03:38:40.132Z,0.35
2023-04-03T03:39:40.145Z,0.38
2023-04-03T03:40:40.120Z,0.65
2023-04-03T03:41:43.057Z,0.40
2023-04-03T03:42:40.136Z,0.41
2023-04-03T03:43:40.137Z,0.51
2023-04-03T03:44:47.063Z,0.41
2023-04-03T03:45:40.118Z,0.44
2023-04-03T03:46:40.153Z,0.52
2023-04-03T03:47:40.583Z,0.30
2023-04-03T03:48:40.567Z,0.50
2023-04-03T03:49:40.119Z,0.39
2023-04-03T03:50:40.123Z,0.30
2023-04-03T03:51:40.124Z,0.43
2023-04-03T03:52:40.125Z,0.43
2023-04-03T03:53:40.116Z,0.42
2023-04-03T03:54:40.565Z,0.46
2023-04-03T03:55:40.688Z,0.52
2023-04-03T03:56:40.056Z,0.37
2023-04-03T03:57:40.102Z,0.40
2023-04-03T03:58:40.154Z,0.39
2023-04-03T03:59:40.209Z,0.53
2023-04-03T04:00:40.252Z,0.34
2023-04-03T04:01:40.351Z,0.30
2023-04-03T04:02:40.450Z,0.40
2023-04-03T04:03:40.523Z,0.40
2023-04-03T04:04:40.463Z,0.59
2023-04-03T04:05:40.542Z,0.53
2023-04-03T04:06:41.071Z,0.45
2023-04-03T04:07:40.592Z,0.50
2023-04-03T04:08:40.648Z,0.44
2023-04-03T04:09:40.677Z,0.57
2023-04-03T04:10:40.733Z,0.38
2023-04-03T04:11:40.785Z,0.32
2023-04-03T04:12:40.804Z,0.63
2023-04-03T04:13:40.854Z,0.45
2023-04-03T04:14:40.909Z,0.51
2023-04-03T04:15:41.169Z,0.57
2023-04-03T04:16:41.116Z,0.35
2023-04-03T04:17:41.091Z,0.54
2023-04-03T04:18:41.060Z,0.48
2023-04-03T04:19:41.122Z,0.37
2023-04-03T04:20:41.162Z,0.38
2023-04-03T04:21:41.211Z,0.47
2023-04-03T04:22:41.260Z,0.58
2023-04-03T04:23:41.283Z,0.45
2023-04-03T04:24:41.330Z,0.70
2023-04-03T04:25:41.374Z,0.69
2023-04-03T04:26:41.431Z,0.65
2023-04-03T04:27:41.496Z,0.39
2023-04-03T04:28:41.515Z,0.51
2023-04-03T04:29:42.081Z,0.34
2023-04-03T04:30:41.648Z,0.33
2023-04-03T04:31:41.669Z,0.46
2023-04-03T04:32:41.749Z,0.59
2023-04-03T04:33:41.749Z,0.44
2023-04-03T04:34:42.139Z,0.62
2023-04-03T04:35:42.346Z,0.31
2023-04-03T04:36:42.166Z,0.59
2023-04-03T04:37:42.139Z,0.48
2023-04-03T04:38:42.170Z,0.42
2023-04-03T04:39:42.124Z,0.56
2023-04-03T04:40:42.581Z,0.40
2023-04-03T04:41:42.592Z,0.45
2023-04-03T04:42:42.182Z,0.41
2023-04-03T04:43:42.250Z,0.59
2023-04-03T04:44:42.268Z,0.44
2023-04-03T04:45:42.326Z,0.61
2023-04-03T04:46:42.421Z,0.50
2023-04-03T04:47:42.620Z,0.52
2023-04-03T04:48:42.462Z,0.62
2023-04-03T04:49:42.518Z,0.58
2023-04-03T04:50:42.553Z,0.46
2023-04-03T04:51:51.595Z,0.82
2023-04-03T04:52:42.599Z,0.57
2023-04-03T04:53:42.595Z,0.45
2023-04-03T04:54:42.590Z,0.49
2023-04-03T04:55:42.584Z,0.43
2023-04-03T04:56:42.590Z,0.61
2023-04-03T04:57:42.589Z,0.43
2023-04-03T04:58:42.577Z,0.57
2023-04-03T04:59:42.613Z,0.53
2023-04-03T05:00:42.582Z,0.41
2023-04-03T05:01:42.627Z,0.50
2023-04-03T05:02:42.592Z,0.69
2023-04-03T05:03:42.566Z,0.70
2023-04-03T05:04:42.602Z,0.41
2023-04-03T05:05:42.556Z,0.51
2023-04-03T05:06:42.554Z,0.54
2023-04-03T05:07:42.542Z,0.87
2023-04-03T05:08:42.602Z,0.64
2023-04-03T05:09:42.538Z,0.75
2023-04-03T05:10:42.550Z,0.59
2023-04-03T05:11:42.529Z,0.46
2023-04-03T05:12:42.686Z,0.77
2023-04-03T05:13:42.604Z,0.46
2023-04-03T05:14:42.500Z,0.38
2023-04-03T05:15:42.532Z,0.57
2023-04-03T05:16:42.543Z,0.51
2023-04-03T05:17:43.127Z,0.67
2023-04-03T05:18:43.106Z,0.60
2023-04-03T05:19:42.463Z,0.64
2023-04-03T05:20:42.475Z,0.61
2023-04-03T05:21:42.520Z,0.63
2023-04-03T05:22:42.588Z,0.59
2023-04-03T05:23:42.617Z,0.60
2023-04-03T05:24:42.668Z,0.89
2023-04-03T05:25:45.605Z,0.77
2023-04-03T05:26:42.720Z,0.69
2023-04-03T05:27:42.716Z,0.56
2023-04-03T05:28:42.707Z,0.63
2023-04-03T05:29:45.605Z,0.66
2023-04-03T05:30:42.715Z,0.60
2023-04-03T05:31:42.765Z,0.40
2023-04-03T05:32:42.760Z,0.34
2023-04-03T05:33:42.683Z,0.87
2023-04-03T05:34:42.679Z,0.62
2023-04-03T05:35:42.846Z,0.44
2023-04-03T05:36:42.680Z,0.74
2023-04-03T05:37:42.681Z,0.54
2023-04-03T05:38:42.664Z,0.56
2023-04-03T05:39:42.659Z,0.51
2023-04-03T05:40:42.655Z,0.82
2023-04-03T05:41:42.656Z,0.55
2023-04-03T05:42:42.649Z,0.76
2023-04-03T05:43:42.632Z,0.78
2023-04-03T05:44:49.605Z,0.70
2023-04-03T05:45:43.662Z,0.86
2023-04-03T05:46:42.600Z,0.82
2023-04-03T05:47:42.657Z,0.82
2023-04-03T05:48:42.591Z,0.79
2023-04-03T05:49:45.104Z,0.50
2023-04-03T05:50:42.689Z,0.86
2023-04-03T05:51:42.588Z,0.50
2023-04-03T05:52:42.590Z,0.65
2023-04-03T05:53:42.584Z,0.69
2023-04-03T05:54:42.590Z,1.07
2023-04-03T05:55:42.578Z,0.81
2023-04-03T05:56:42.569Z,0.83
2023-04-03T05:57:42.572Z,0.67
2023-04-03T05:58:42.559Z,0.53
2023-04-03T05:59:49.115Z,0.86
2023-04-03T06:00:42.541Z,0.64
2023-04-03T06:01:42.540Z,1.02
2023-04-03T06:02:42.723Z,0.77
2023-04-03T06:03:43.290Z,1.03
2023-04-03T06:04:42.630Z,0.84
2023-04-03T06:05:42.513Z,0.91
2023-04-03T06:06:42.504Z,0.65
2023-04-03T06:07:42.507Z,0.91
2023-04-03T06:08:42.509Z,0.91
2023-04-03T06:09:42.487Z,0.98
2023-04-03T06:10:42.490Z,0.86
2023-04-03T06:11:42.471Z,0.75
2023-04-03T06:12:42.467Z,0.95
2023-04-03T06:13:45.127Z,0.93
2023-04-03T06:14:42.458Z,0.74
2023-04-03T06:15:43.119Z,0.62
2023-04-03T06:16:42.474Z,0.69
2023-04-03T06:17:42.529Z,0.81
2023-04-03T06:18:42.435Z,0.65
2023-04-03T06:19:42.448Z,0.69
2023-04-03T06:20:42.412Z,0.87
2023-04-03T06:21:42.422Z,0.95
2023-04-03T06:22:42.406Z,0.85
2023-04-03T06:23:42.390Z,0.82
2023-04-03T06:24:42.377Z,0.86
2023-04-03T06:25:42.364Z,0.99
2023-04-03T06:26:42.361Z,1.01
2023-04-03T06:27:42.353Z,0.73
2023-04-03T06:28:42.347Z,0.77
2023-04-03T06:29:49.184Z,0.78
2023-04-03T06:30:42.382Z,0.91
2023-04-03T06:31:42.316Z,0.98
2023-04-03T06:32:42.349Z,1.01
2023-04-03T06:33:42.284Z,0.95
2023-04-03T06:34:42.280Z,0.72
2023-04-03T06:35:42.314Z,1.01
2023-04-03T06:36:43.179Z,0.95
2023-04-03T06:37:42.252Z,0.96
2023-04-03T06:38:42.634Z,0.91
2023-04-03T06:39:42.439Z,1.10
2023-04-03T06:40:42.218Z,1.16
2023-04-03T06:41:42.214Z,0.76
2023-04-03T06:42:42.199Z,0.95
2023-04-03T06:43:42.252Z,0.80
2023-04-03T06:44:42.294Z,0.68
2023-04-03T06:45:42.328Z,1.04
2023-04-03T06:46:42.690Z,0.84
2023-04-03T06:47:42.524Z,1.04
2023-04-03T06:48:43.180Z,1.01
2023-04-03T06:49:43.181Z,0.93
2023-04-03T06:50:42.527Z,1.20
2023-04-03T06:51:42.596Z,0.78
2023-04-03T06:52:42.641Z,0.93
2023-04-03T06:53:42.664Z,0.93
2023-04-03T06:54:42.710Z,1.15
2023-04-03T06:55:42.751Z,1.26
2023-04-03T06:56:43.189Z,0.86
2023-04-03T06:57:43.193Z,1.00
2023-04-03T06:58:43.189Z,1.43
2023-04-03T06:59:43.180Z,0.99
2023-04-03T07:00:43.182Z,0.83
2023-04-03T07:01:43.247Z,0.88
2023-04-03T07:02:43.245Z,1.30
2023-04-03T07:03:43.188Z,1.03
2023-04-03T07:04:43.200Z,1.40
2023-04-03T07:05:43.208Z,1.02
2023-04-03T07:06:43.255Z,1.15
2023-04-03T07:07:43.690Z,1.22
2023-04-03T07:08:43.352Z,0.69
2023-04-03T07:09:45.111Z,1.05
2023-04-03T07:10:43.652Z,1.09
2023-04-03T07:11:43.386Z,1.21
2023-04-03T07:12:43.390Z,0.95
2023-04-03T07:13:43.374Z,1.10
2023-04-03T07:14:43.376Z,1.16
2023-04-03T07:15:43.446Z,1.22
2023-04-03T07:16:43.728Z,1.24
2023-04-03T07:17:43.427Z,1.47
2023-04-03T07:18:43.348Z,1.10
2023-04-03T07:19:43.367Z,0.97
2023-04-03T07:20:44.145Z,1.22
2023-04-03T07:21:43.342Z,0.90
2023-04-03T07:22:43.348Z,1.10
2023-04-03T07:23:46.254Z,1.16
2023-04-03T07:24:43.338Z,1.11
2023-04-03T07:25:43.337Z,1.15
2023-04-03T07:26:43.320Z,0.86
2023-04-03T07:27:44.145Z,1.20
2023-04-03T07:28:43.304Z,1.41
2023-04-03T07:29:43.301Z,1.24
2023-04-03T07:30:43.291Z,1.11
2023-04-03T07:31:43.699Z,1.47
2023-04-03T07:32:43.302Z,1.37
2023-04-03T07:33:43.269Z,1.09
2023-04-03T07:34:43.248Z,1.41
2023-04-03T07:35:44.157Z,1.22
2023-04-03T07:36:43.263Z,1.36
2023-04-03T07:37:43.255Z,1.31
2023-04-03T07:38:43.218Z,0.85
2023-04-03T07:39:43.249Z,1.34
2023-04-03T07:40:43.212Z,1.42
2023-04-03T07:41:43.212Z,1.24
2023-04-03T07:42:43.278Z,1.29
2023-04-03T07:43:43.328Z,0.84
2023-04-03T07:44:43.352Z,1.03
2023-04-03T07:45:43.398Z,1.03
2023-04-03T07:47:21.673Z,1.18
2023-04-03T07:48:22.621Z,1.38
2023-04-03T07:49:22.606Z,1.34
2023-04-03T07:50:22.600Z,1.41
2023-04-03T07:51:22.596Z,1.56
2023-04-03T07:52:22.615Z,1.66
2023-04-03T07:53:23.241Z,1.18
2023-04-03T07:54:22.584Z,1.44
2023-04-03T07:55:22.607Z,1.31
2023-04-03T07:56:22.562Z,1.17
2023-04-03T07:57:22.629Z,1.24
2023-04-03T07:58:22.562Z,1.29
2023-04-03T07:59:22.537Z,1.23
2023-04-03T08:00:22.584Z,1.21
2023-04-03T08:01:23.246Z,1.74
2023-04-03T08:02:22.538Z,1.52
2023-04-03T08:03:22.687Z,1.31
2023-04-03T08:04:22.572Z,1.64
2023-04-03T08:05:22.488Z,1.22
2023-04-03T08:06:33.110Z,1.57
2023-04-03T08:07:22.517Z,1.62
2023-04-03T08:08:22.474Z,1.36
2023-04-03T08:09:22.472Z,1.65
2023-04-03T08:10:22.541Z,1.30
2023-04-03T08:11:22.511Z,1.44
2023-04-03T08:12:22.501Z,1.33
2023-04-03T08:13:22.459Z,1.50
2023-04-03T08:14:22.438Z,1.62
2023-04-03T08:15:22.445Z,1.50
2023-04-03T08:16:22.458Z,1.55
2023-04-03T08:17:22.443Z,1.44
2023-04-03T08:18:22.420Z,1.50
2023-04-03T08:19:26.693Z,1.50
2023-04-03T08:20:22.478Z,1.34
2023-04-03T08:21:22.498Z,1.35
2023-04-03T08:22:22.514Z,1.67
2023-04-03T08:23:22.539Z,1.30
2023-04-03T08:24:23.265Z,1.40
2023-04-03T08:25:22.594Z,1.49
2023-04-03T08:26:22.732Z,1.14
2023-04-03T08:27:22.692Z,1.80
2023-04-03T08:28:22.697Z,1.46
2023-04-03T08:29:22.728Z,1.79
2023-04-03T08:30:22.769Z,1.64
2023-04-03T08:31:22.868Z,1.75
2023-04-03T08:32:22.838Z,1.65
2023-04-03T08:33:22.876Z,1.55
2023-04-03T08:34:22.919Z,1.60
2023-04-03T08:35:22.938Z,1.60
2023-04-03T08:36:22.998Z,1.54
2023-04-03T08:37:23.012Z,1.63
2023-04-03T08:38:23.049Z,1.58
2023-04-03T08:39:23.078Z,1.50
2023-04-03T08:40:23.114Z,1.39
2023-04-03T08:41:23.157Z,1.49
2023-04-03T08:42:23.194Z,1.55
2023-04-03T08:43:23.344Z,1.92
2023-04-03T08:44:23.271Z,1.54
2023-04-03T08:45:23.300Z,1.58
2023-04-03T08:46:23.334Z,1.63
2023-04-03T08:47:23.856Z,1.65
2023-04-03T08:48:23.407Z,1.60
2023-04-03T08:49:23.507Z,1.56
2023-04-03T08:50:23.457Z,1.76
2023-04-03T08:51:23.493Z,1.45
2023-04-03T08:52:23.524Z,1.69
2023-04-03T08:53:23.560Z,1.76
2023-04-03T08:54:23.970Z,1.59
2023-04-03T08:55:23.988Z,1.50
2023-04-03T08:56:23.972Z,1.48
2023-04-03T08:57:24.081Z,1.70
2023-04-03T08:58:23.985Z,1.91
2023-04-03T08:59:24.095Z,1.50
2023-04-03T09:00:23.977Z,1.67
2023-04-03T09:01:23.993Z,2.16
2023-04-03T09:02:24.073Z,1.38
2023-04-03T09:03:24.075Z,1.60
2023-04-03T09:04:24.020Z,1.91
2023-04-03T09:05:24.209Z,2.20
2023-04-03T09:06:24.023Z,1.52
2023-04-03T09:07:24.058Z,1.71
2023-04-03T09:08:24.099Z,1.82
2023-04-03T09:09:24.138Z,1.59
2023-04-03T09:10:24.166Z,1.96
2023-04-03T09:11:24.204Z,1.84
2023-04-03T09:12:24.231Z,1.95
2023-04-03T09:13:24.296Z,1.98
2023-04-03T09:14:24.299Z,1.87
2023-04-03T09:15:35.355Z,1.57
2023-04-03T09:16:24.357Z,1.99
2023-04-03T09:17:24.322Z,1.72
2023-04-03T09:18:24.321Z,1.74
2023-04-03T09:19:24.342Z,1.64
2023-04-03T09:20:25.281Z,1.88
2023-04-03T09:21:24.294Z,1.24
2023-04-03T09:22:24.284Z,2.02
2023-04-03T09:23:24.285Z,1.85
2023-04-03T09:24:24.271Z,1.91
2023-04-03T09:25:24.263Z,1.72
2023-04-03T09:26:24.259Z,1.51
2023-04-03T09:27:24.306Z,2.05
2023-04-03T09:28:24.266Z,1.68
2023-04-03T09:29:24.235Z,1.77
2023-04-03T09:30:24.233Z,1.88
2023-04-03T09:31:24.389Z,1.71
2023-04-03T09:32:24.205Z,1.85
2023-04-03T09:33:24.206Z,1.65
2023-04-03T09:34:24.240Z,1.93
2023-04-03T09:35:29.910Z,2.03
2023-04-03T09:36:24.293Z,1.79
2023-04-03T09:37:24.259Z,1.77
2023-04-03T09:38:24.238Z,1.88
2023-04-03T09:39:24.228Z,2.05
2023-04-03T09:40:24.209Z,1.82
2023-04-03T09:41:24.197Z,1.99
2023-04-03T09:42:24.182Z,1.79
2023-04-03T09:43:24.185Z,2.27
2023-04-03T09:44:24.182Z,2.27
2023-04-03T09:45:24.191Z,1.88
2023-04-03T09:46:25.151Z,1.59
2023-04-03T09:47:24.338Z,1.95
2023-04-03T09:48:24.305Z,2.00
2023-04-03T09:49:24.188Z,1.95
2023-04-03T09:50:24.179Z,2.06
2023-04-03T09:51:24.184Z,2.12
2023-04-03T09:52:24.197Z,1.73
2023-04-03T09:53:24.190Z,1.82
2023-04-03T09:54:24.196Z,2.19
2023-04-03T09:55:24.182Z,1.73
2023-04-03T09:56:24.182Z,1.66
2023-04-03T09:57:24.252Z,2.13
2023-04-03T09:58:24.192Z,2.27
2023-04-03T09:59:24.197Z,2.07
2023-04-03T10:00:24.186Z,1.89
2023-04-03T10:01:24.239Z,1.81
2023-04-03T10:02:24.279Z,2.12
2023-04-03T10:03:24.372Z,2.05
2023-04-03T10:04:24.296Z,2.28
2023-04-03T10:05:24.324Z,1.62
2023-04-03T10:06:24.357Z,2.07
2023-04-03T10:07:24.387Z,2.04
2023-04-03T10:08:24.426Z,2.16
2023-04-03T10:09:24.465Z,2.15
2023-04-03T10:10:24.530Z,1.97
2023-04-03T10:11:24.531Z,2.01
2023-04-03T10:12:24.562Z,1.93
2023-04-03T10:13:24.589Z,2.22
2023-04-03T10:14:24.624Z,1.94
2023-04-03T10:15:24.663Z,2.03
2023-04-03T10:16:24.716Z,1.99
2023-04-03T10:17:25.138Z,2.32
2023-04-03T10:18:25.335Z,2.04
2023-04-03T10:19:25.244Z,2.24
2023-04-03T10:20:25.118Z,2.27
2023-04-03T10:21:27.773Z,1.99
2023-04-03T10:22:25.146Z,2.00
2023-04-03T10:23:25.123Z,2.04
2023-04-03T10:24:25.136Z,1.77
2023-04-03T10:25:25.128Z,2.11
2023-04-03T10:26:25.123Z,2.02
2023-04-03T10:27:25.123Z,2.14
2023-04-03T10:28:25.117Z,1.75
2023-04-03T10:29:25.118Z,2.14
2023-04-03T10:30:25.121Z,1.88
2023-04-03T10:31:25.137Z,2.14
2023-04-03T10:32:25.129Z,2.35
2023-04-03T10:33:25.126Z,2.25
2023-04-03T10:34:25.117Z,2.26
2023-04-03T10:35:25.243Z,2.17
2023-04-03T10:36:25.124Z,1.88
2023-04-03T10:37:25.124Z,2.33
2023-04-03T10:38:25.147Z,2.01
2023-04-03T10:39:25.117Z,2.01
2023-04-03T10:40:25.077Z,2.46
2023-04-03T10:41:25.075Z,2.09
2023-04-03T10:42:24.694Z,1.93
2023-04-03T10:43:24.694Z,2.00
2023-04-03T10:44:24.705Z,1.99
2023-04-03T10:45:24.684Z,2.21
2023-04-03T10:46:24.705Z,2.05
2023-04-03T10:47:24.672Z,1.93
2023-04-03T10:48:24.659Z,1.56
2023-04-03T10:49:24.655Z,2.32
2023-04-03T10:50:24.645Z,2.20
2023-04-03T10:51:25.082Z,2.23
2023-04-03T10:52:25.077Z,2.20
2023-04-03T10:53:25.157Z,1.98
2023-04-03T10:54:25.130Z,2.14
2023-04-03T10:55:25.127Z,1.96
2023-04-03T10:56:25.120Z,2.47
2023-04-03T10:57:25.166Z,2.30
2023-04-03T10:58:25.127Z,1.89
2023-04-03T10:59:25.127Z,2.17
2023-04-03T11:00:25.126Z,2.13
2023-04-03T11:01:25.136Z,2.11
2023-04-03T11:02:25.268Z,2.33
2023-04-03T11:03:25.191Z,2.25
2023-04-03T11:04:25.134Z,2.29
2023-04-03T11:05:25.176Z,2.06
2023-04-03T11:06:25.200Z,2.09
2023-04-03T11:07:25.369Z,2.00
2023-04-03T11:08:25.310Z,2.05
2023-04-03T11:09:25.316Z,2.07
2023-04-03T11:10:25.356Z,2.11
2023-04-03T11:11:25.389Z,1.95
2023-04-03T11:12:25.433Z,1.95
2023-04-03T11:13:25.468Z,2.08
2023-04-03T11:14:25.513Z,1.75
2023-04-03T11:15:25.549Z,2.21
2023-04-03T11:16:25.640Z,1.88
2023-04-03T11:17:25.629Z,2.22
2023-04-03T11:18:25.655Z,2.39
2023-04-03T11:19:25.688Z,2.10
2023-04-03T11:20:25.824Z,2.12
2023-04-03T11:21:25.754Z,2.36
2023-04-03T11:22:25.804Z,2.06
2023-04-03T11:23:28.313Z,2.09
2023-04-03T11:24:26.350Z,1.91
2023-04-03T11:26:44.418Z,1.91
2023-04-03T11:27:44.983Z,1.83
2023-04-03T11:28:44.975Z,2.08
2023-04-03T11:29:44.962Z,2.04
2023-04-03T11:30:44.982Z,1.85
2023-04-03T11:31:45.000Z,2.32
2023-04-03T11:32:44.997Z,2.37
2023-04-03T11:33:44.945Z,2.24
2023-04-03T11:34:44.926Z,2.22
2023-04-03T11:35:44.969Z,2.32
2023-04-03T11:36:44.958Z,1.85
2023-04-03T11:37:44.897Z,2.09
2023-04-03T11:38:45.018Z,2.38
2023-04-03T11:39:44.876Z,1.85
2023-04-03T11:40:44.867Z,2.10
2023-04-03T11:41:44.885Z,2.09
2023-04-03T11:42:44.872Z,2.05
2023-04-03T11:43:44.832Z,2.12
2023-04-03T11:44:44.862Z,2.57
2023-04-03T11:45:44.822Z,2.39
2023-04-03T11:46:44.875Z,2.18
2023-04-03T11:47:44.824Z,2.31
2023-04-03T11:48:44.786Z,2.27
2023-04-03T11:49:44.778Z,2.13
2023-04-03T11:50:44.766Z,1.92
2023-04-03T11:51:44.756Z,2.44
2023-04-03T11:52:44.988Z,2.22
2023-04-03T11:53:44.740Z,2.25
2023-04-03T11:54:45.610Z,2.26
2023-04-03T11:55:44.710Z,2.27
2023-04-03T11:56:44.691Z,2.32
2023-04-03T11:57:45.417Z,2.20
2023-04-03T11:58:44.669Z,2.11
2023-04-03T11:59:44.645Z,2.21
2023-04-03T12:00:44.649Z,2.28
2023-04-03T12:01:44.697Z,1.90
2023-04-03T12:02:53.718Z,2.18
2023-04-03T12:03:44.776Z,2.09
2023-04-03T12:04:44.760Z,2.25
2023-04-03T12:05:44.688Z,2.23
2023-04-03T12:06:44.676Z,2.16
2023-04-03T12:07:44.689Z,2.19
2023-04-03T12:08:44.649Z,1.90
2023-04-03T12:09:44.676Z,2.05
2023-04-03T12:10:44.741Z,2.00
2023-04-03T12:11:44.607Z,2.18
2023-04-03T12:12:44.596Z,2.00
2023-04-03T12:13:44.576Z,2.07
2023-04-03T12:14:44.571Z,2.23
2023-04-03T12:15:44.559Z,2.62
2023-04-03T12:16:44.578Z,2.44
2023-04-03T12:17:44.562Z,2.63
2023-04-03T12:18:44.535Z,2.60
2023-04-03T12:19:44.560Z,2.47
2023-04-03T12:20:44.503Z,2.19
2023-04-03T12:21:44.508Z,2.74
2023-04-03T12:22:44.533Z,1.87
2023-04-03T12:23:44.475Z,2.22
2023-04-03T12:24:44.466Z,2.57
2023-04-03T12:25:45.434Z,2.58
2023-04-03T12:26:48.506Z,2.14
2023-04-03T12:27:44.692Z,2.82
2023-04-03T12:28:44.701Z,2.65
2023-04-03T12:29:45.251Z,2.72
2023-04-03T12:30:44.859Z,2.11
2023-04-03T12:31:44.772Z,2.48
2023-04-03T12:32:44.918Z,2.39
2023-04-03T12:33:44.843Z,2.57
2023-04-03T12:34:44.879Z,2.02
2023-04-03T12:35:44.945Z,2.23
2023-04-03T12:36:44.955Z,2.68
2023-04-03T12:37:44.993Z,1.97
2023-04-03T12:38:45.028Z,2.21
2023-04-03T12:39:45.061Z,2.55
2023-04-03T12:40:45.091Z,2.61
2023-04-03T12:41:45.135Z,2.08
2023-04-03T12:42:45.296Z,2.15
2023-04-03T12:43:45.202Z,2.01
2023-04-03T12:44:45.238Z,2.70
2023-04-03T12:45:45.292Z,2.53
2023-04-03T12:46:45.404Z,2.60
2023-04-03T12:47:45.397Z,2.76
2023-04-03T12:48:45.380Z,1.98
2023-04-03T12:49:45.427Z,2.18
2023-04-03T12:50:45.448Z,2.32
2023-04-03T12:51:45.492Z,2.23
2023-04-03T12:52:45.530Z,2.06
2023-04-03T12:53:45.586Z,2.65
2023-04-03T12:54:45.597Z,2.42
2023-04-03T12:55:45.626Z,2.01
2023-04-03T12:56:45.669Z,2.26
2023-04-03T12:57:45.691Z,2.27
2023-04-03T12:58:45.882Z,2.55
2023-04-03T12:59:45.762Z,1.77
2023-04-03T13:00:48.451Z,2.40
2023-04-03T13:01:45.806Z,2.12
2023-04-03T13:02:45.842Z,1.99
2023-04-03T13:03:45.885Z,2.36
2023-04-03T13:04:45.768Z,2.30
2023-04-03T13:05:45.758Z,2.16
2023-04-03T13:06:45.770Z,2.32
2023-04-03T13:07:45.756Z,2.23
2023-04-03T13:08:45.750Z,2.45
2023-04-03T13:09:45.730Z,1.85
2023-04-03T13:10:45.724Z,2.34
2023-04-03T13:11:45.715Z,2.60
2023-04-03T13:12:45.706Z,2.59
2023-04-03T13:13:45.703Z,2.28
2023-04-03T13:14:45.814Z,2.26
2023-04-03T13:15:45.699Z,2.61
2023-04-03T13:16:45.680Z,2.48
2023-04-03T13:17:45.716Z,2.56
2023-04-03T13:18:45.652Z,2.68
2023-04-03T13:19:45.650Z,1.81
2023-04-03T13:20:45.646Z,2.02